Time;durP1;ratioP1;P1;durP2;ratioP2;P2;SDS_P1;SDS_P2;PMS_P1;PMS_P2;Temp;Humidity;BMP_temperature;BMP_pressure;BME280_temperature;BME280_humidity;BME280_pressure;Samples;Min_cycle;Max_cycle;Signal;HPM_P1;HPM_P2
2021/06/05 08:16:15;;;;;;;5.60;4.20;;;24.20;86.90;;;;;;3594175;39;20404;-61
2021/06/05 08:18:41;;;;;;;8.25;4.03;;;;;;;;;;3582977;40;20041;-61
2021/06/05 08:21:12;;;;;;;6.97;3.70;;;24.00;88.10;;;;;;3581384;40;20079;-61
2021/06/05 08:23:39;;;;;;;8.93;3.72;;;;;;;;;;3583673;39;20033;-64
2021/06/05 08:26:07;;;;;;;6.28;3.63;;;24.20;86.00;;;;;;3583249;39;20044;-63
2021/06/05 08:28:33;;;;;;;7.35;3.53;;;;;;;;;;3579433;40;20028;-64
2021/06/05 08:31:02;;;;;;;4.85;3.17;;;;;;;;;;3584501;40;20113;-63
2021/06/05 08:33:28;;;;;;;4.65;3.13;;;;;;;;;;3583800;39;20035;-63
2021/06/05 08:35:55;;;;;;;6.85;4.20;;;;;;;;;;3583689;39;20688;-63
2021/06/05 08:38:24;;;;;;;24.25;6.18;;;;;;;;;;3586578;39;20048;-63
2021/06/05 08:40:50;;;;;;;16.02;5.30;;;;;;;;;;3586701;40;20024;-63
2021/06/05 08:43:27;;;;;;;84.50;11.85;;;;;;;;;;3587955;39;20305;-63
2021/06/05 08:45:54;;;;;;;9.98;3.55;;;;;;;;;;3586451;39;20068;-63
2021/06/05 08:48:22;;;;;;;5.80;3.47;;;;;;;;;;3583753;40;20035;-64
2021/06/05 08:50:49;;;;;;;6.20;3.10;;;;;;;;;;3583286;40;20689;-64
2021/06/05 08:53:16;;;;;;;12.55;3.60;;;;;;;;;;3583493;40;20349;-64
2021/06/05 08:55:45;;;;;;;4.22;3.05;;;;;;;;;;3580712;40;20059;-64
2021/06/05 08:58:15;;;;;;;7.18;3.95;;;;;;;;;;3577984;40;20032;-63
2021/06/05 09:00:46;;;;;;;21.17;6.13;;;;;;;;;;3586825;40;20094;-64
2021/06/05 09:03:12;;;;;;;25.48;7.22;;;;;;;;;;3587258;40;20327;-64
2021/06/05 09:05:39;;;;;;;42.63;9.38;;;;;;;;;;3585212;39;20597;-63
2021/06/05 09:08:06;;;;;;;13.32;4.30;;;;;;;;;;3584660;40;20045;-61
2021/06/05 09:10:33;;;;;;;8.20;3.60;;;;;;;;;;3584140;40;20040;-61
2021/06/05 09:12:59;;;;;;;42.78;11.63;;;;;;;;;;3585648;40;20044;-61
2021/06/05 09:15:27;;;;;;;11.65;5.90;;;;;;;;;;3586333;39;20313;-61
2021/06/05 09:17:55;;;;;;;15.55;5.90;;;;;;;;;;3580123;39;20055;-66
2021/06/05 09:20:24;;;;;;;5.40;3.08;;;;;;;;;;3577924;40;20037;-66
2021/06/05 09:22:51;;;;;;;12.65;5.60;;;;;;;;;;3585324;40;20029;-66
2021/06/05 09:25:32;;;;;;;10.25;4.10;;;;;;;;;;3584987;40;20028;-66
2021/06/05 09:28:27;;;;;;;6.47;3.55;;;;;;;;;;3576064;40;20121;-66
2021/06/05 09:31:11;;;;;;;7.40;3.58;;;;;;;;;;3570916;40;20047;-66
2021/06/05 09:33:38;;;;;;;7.25;3.55;;;;;;;;;;3574904;40;20040;-66
2021/06/05 09:36:17;;;;;;;5.13;3.30;;;;;;;;;;3579279;40;20132;-66
2021/06/05 09:39:13;;;;;;;22.52;12.25;;;;;;;;;;3577430;40;20304;-66
2021/06/05 09:41:49;;;;;;;59.35;18.33;;;;;;;;;;3572071;40;20037;-64
2021/06/05 09:44:21;;;;;;;15.85;5.30;;;;;;;;;;3578682;40;20456;-64
2021/06/05 09:46:55;;;;;;;14.75;5.00;;;;;;;;;;3575489;40;20040;-64
2021/06/05 09:49:33;;;;;;;57.10;9.07;;;;;;;;;;3575904;40;20893;-67
2021/06/05 09:52:05;;;;;;;92.45;11.88;;;;;;;;;;3578377;40;20129;-67
2021/06/05 09:54:34;;;;;;;35.13;9.00;;;;;;;;;;3573518;40;20076;-67
2021/06/05 09:57:19;;;;;;;71.20;10.63;;;;;;;;;;3576925;40;20045;-64
2021/06/05 09:59:58;;;;;;;25.25;8.52;;;;;;;;;;3573672;40;20051;-64
2021/06/05 10:02:24;;;;;;;27.02;11.75;;;;;;;;;;3579071;40;20044;-64
2021/06/05 10:05:02;;;;;;;17.08;7.32;;;;;;;;;;3577003;40;20037;-64
2021/06/05 10:07:29;;;;;;;28.58;8.65;;;;;;;;;;3577841;40;20032;-64
2021/06/05 10:10:00;;;;;;;35.63;10.95;;;;;;;;;;3576470;40;20037;-64
2021/06/05 10:12:28;;;;;;;35.92;9.75;;;;;;;;;;3574306;40;20037;-64
2021/06/05 10:15:12;;;;;;;37.90;10.00;;;;;;;;;;3572315;40;20048;-64
2021/06/05 10:17:40;;;;;;;41.65;9.20;;;;;;;;;;3577136;40;20056;-65
2021/06/05 10:20:07;;;;;;;35.63;8.18;;;;;;;;;;3572445;40;20104;-65
2021/06/05 10:22:34;;;;;;;37.53;9.30;;;;;;;;;;3576002;40;20145;-65
2021/06/05 10:25:07;;;;;;;43.60;9.93;;;;;;;;;;3576180;40;20785;-64
2021/06/05 10:27:37;;;;;;;49.17;9.07;;;;;;;;;;3576146;40;20029;-64
2021/06/05 10:30:10;;;;;;;29.88;7.85;;;;;;;;;;3576659;40;20029;-65
2021/06/05 10:32:41;;;;;;;65.38;10.23;;;;;;;;;;3576301;40;20137;-65
2021/06/05 10:35:26;;;;;;;24.27;7.28;;;;;;;;;;3576740;40;20056;-65
2021/06/05 10:37:52;;;;;;;49.27;23.07;;;;;;;;;;3585017;39;20056;-65
2021/06/05 10:40:26;;;;;;;11.73;5.50;;;;;;;;;;3572586;40;20255;-65
2021/06/05 10:42:53;;;;;;;7.38;5.05;;;;;;;;;;3575768;40;20025;-65
2021/06/05 10:45:25;;;;;;;14.75;6.65;;;;;;;;;;3575625;40;20033;-65
2021/06/05 10:47:55;;;;;;;7.43;5.32;;;;;;;;;;3576482;40;20033;-66
2021/06/05 10:50:24;;;;;;;12.82;6.30;;;;;;;;;;3572601;40;20036;-67
2021/06/05 10:52:50;;;;;;;28.35;7.47;;;;;;;;;;3574147;40;20029;-65
2021/06/05 10:55:19;;;;;;;24.33;7.13;;;;;;;;;;3578702;40;20051;-65
2021/06/05 10:57:50;;;;;;;42.92;8.52;;;;;;;;;;3576986;40;20044;-64
2021/06/05 11:00:22;;;;;;;46.33;9.20;;;;;;;;;;3576544;40;20033;-65
2021/06/05 11:02:50;;;;;;;87.22;11.45;;;;;;;;;;3576678;40;20028;-65
2021/06/05 11:05:29;;;;;;;16.10;6.38;;;;;;;;;;3575548;40;20423;-65
2021/06/05 11:08:11;;;;;;;18.25;6.30;;;;;;;;;;3574565;40;20501;-65
2021/06/05 11:10:50;;;;;;;60.78;9.55;;;;;;;;;;3573982;40;20105;-65
2021/06/05 11:13:32;;;;;;;61.70;9.15;;;;;;;;;;3571960;40;20329;-65
2021/06/05 11:16:00;;;;;;;68.80;9.85;;;;;;;;;;3575501;40;20397;-65
2021/06/05 11:18:29;;;;;;;81.00;11.20;;;;;;;;;;3577844;40;20393;-65
2021/06/05 11:20:55;;;;;;;46.05;10.13;;;;;;;;;;3575839;40;20044;-65
2021/06/05 11:23:22;;;;;;;39.08;7.72;;;;;;;;;;3577358;40;20041;-64
2021/06/05 11:25:50;;;;;;;57.65;8.85;;;;;;;;;;3573445;40;20060;-64
2021/06/05 11:28:39;;;;;;;40.08;7.72;;;;;;;;;;3574554;40;20048;-58
2021/06/05 11:31:24;;;;;;;44.42;9.48;;;;;;;;;;3568760;40;20779;-59
2021/06/05 11:33:50;;;;;;;35.33;8.38;;;;;;;;;;3572511;40;20037;-60
2021/06/05 11:36:35;;;;;;;38.78;9.13;;;;;;;;;;3574794;40;20043;-61
2021/06/05 11:39:01;;;;;;;28.23;7.70;;;;;;;;;;3574878;40;20080;-61
2021/06/05 11:41:45;;;;;;;36.80;7.93;;;;;;;;;;3572712;40;20040;-61
2021/06/05 11:44:20;;;;;;;49.35;8.82;;;;;;;;;;3579085;40;20570;-61
2021/06/05 11:46:48;;;;;;;49.92;9.52;;;;;;;;;;3579685;40;20419;-61
2021/06/05 11:49:42;;;;;;;38.85;8.57;;;;;;;;;;3579099;40;20033;-61
2021/06/05 11:52:25;;;;;;;35.55;9.82;;;;;;;;;;3577492;40;20056;-59
2021/06/05 11:54:53;;;;;;;16.60;6.10;;;;;;;;;;3575077;40;20672;-59
2021/06/05 11:57:23;;;;;;;24.40;7.38;;;;;;;;;;3576538;40;20029;-61
2021/06/05 11:59:49;;;;;;;18.73;7.63;;;;;;;;;;3576407;40;20153;-61
2021/06/05 12:02:24;;;;;;;20.52;7.25;;;;;;;;;;3578200;40;20834;-62
2021/06/05 12:04:57;;;;;;;17.92;5.90;;;;;;;;;;3574179;40;20037;-61
2021/06/05 12:07:23;;;;;;;19.02;6.72;;;;;;;;;;3570787;40;20041;-61
2021/06/05 12:09:55;;;;;;;9.15;4.90;;;;;;;;;;3571706;40;20033;-61
2021/06/05 12:12:21;;;;;;;3.83;3.00;;;;;;;;;;3573629;40;20044;-61
2021/06/05 12:14:53;;;;;;;6.07;2.83;;;;;;;;;;3575222;40;20045;-61
2021/06/05 12:17:23;;;;;;;9.25;2.90;;;;;;;;;;3575748;40;20041;-61
2021/06/05 12:19:49;;;;;;;8.15;2.58;;;;;;;;;;3577073;40;20048;-61
2021/06/05 12:22:17;;;;;;;5.90;3.60;;;;;;;;;;3579571;40;20037;-61
2021/06/05 12:24:48;;;;;;;9.43;3.88;;;;;;;;;;3578267;40;20056;-61
2021/06/05 12:27:32;;;;;;;4.10;2.78;;;;;;;;;;3578911;40;20158;-61
2021/06/05 12:30:04;;;;;;;6.10;3.10;;;;;;;;;;3577431;40;20029;-61
2021/06/05 12:32:30;;;;;;;5.35;3.20;;;;;;;;;;3575453;40;20036;-59
2021/06/05 12:34:56;;;;;;;4.95;2.92;;;;;;;;;;3574080;40;20045;-60
2021/06/05 12:37:25;;;;;;;3.45;2.70;;;;;;;;;;3572250;40;20033;-61
2021/06/05 12:39:56;;;;;;;3.10;2.80;;;;;;;;;;3570368;40;20053;-61
2021/06/05 12:42:31;;;;;;;15.93;3.97;;;;;;;;;;3570262;40;20378;-61
2021/06/05 12:45:01;;;;;;;5.63;2.90;;;;;;;;;;3576845;40;20036;-61
2021/06/05 12:47:30;;;;;;;6.55;2.60;;;;;;;;;;3574070;40;20049;-62
2021/06/05 12:49:57;;;;;;;4.28;3.10;;;;;;;;;;3574606;40;20029;-61
2021/06/05 12:52:29;;;;;;;6.55;3.05;;;;;;;;;;3574499;40;20318;-61
2021/06/05 12:55:13;;;;;;;11.45;5.05;;;;;;;;;;3573667;40;20029;-58
2021/06/05 12:57:41;;;;;;;17.20;6.28;;;;;;;;;;3577518;40;20040;-60
2021/06/05 13:00:19;;;;;;;36.30;8.27;;;;;;;;;;3570574;40;20029;-60
2021/06/05 13:02:46;;;;;;;30.58;9.75;;;;;;;;;;3576263;40;20096;-60
2021/06/05 13:05:18;;;;;;;18.42;6.30;;;;;;;;;;3578772;40;20197;-60
2021/06/05 13:07:45;;;;;;;9.00;5.90;;;;;;;;;;3577094;40;20560;-60
2021/06/05 13:10:18;;;;;;;8.13;4.15;;;;;;;;;;3576519;40;20098;-60
2021/06/05 13:12:44;;;;;;;14.05;4.43;;;;;;;;;;3577425;40;20123;-60
2021/06/05 13:15:12;;;;;;;5.13;2.60;;;;;;;;;;3574748;40;20343;-60
2021/06/05 13:17:39;;;;;;;3.53;2.20;;;;;;;;;;3579821;40;20125;-60
2021/06/05 13:20:08;;;;;;;4.13;2.30;;;;;;;;;;3580434;40;20044;-61
2021/06/05 13:22:34;;;;;;;6.50;2.45;;;35.50;45.80;;;;;;3576575;40;20114;-61
2021/06/05 13:25:13;;;;;;;4.72;2.55;;;;;;;;;;3572071;40;20037;-60
2021/06/05 13:28:03;;;;;;;3.55;2.20;;;;;;;;;;3576501;40;20155;-60
2021/06/05 13:30:35;;;;;;;7.65;2.70;;;;;;;;;;3575368;40;20686;-61
2021/06/05 13:33:01;;;;;;;5.30;2.40;;;;;;;;;;3574246;40;20134;-60
2021/06/05 13:35:45;;;;;;;5.75;2.65;;;;;;;;;;3577281;40;20044;-60
2021/06/05 13:38:17;;;;;;;8.60;2.20;;;36.50;43.10;;;;;;3574355;40;20037;-61
2021/06/05 13:40:43;;;;;;;4.18;2.33;;;35.10;49.50;;;;;;3579313;40;20714;-60
2021/06/05 13:43:09;;;;;;;4.30;2.63;;;;;;;;;;3579078;40;20103;-61
2021/06/05 13:45:36;;;;;;;6.03;2.47;;;;;;;;;;3578831;40;20666;-60
2021/06/05 13:48:03;;;;;;;7.07;2.50;;;35.90;44.20;;;;;;3577109;40;20096;-61
2021/06/05 13:50:32;;;;;;;5.20;2.33;;;36.40;43.50;;;;;;3573495;40;20061;-61
2021/06/05 13:53:11;;;;;;;3.75;2.30;;;35.80;44.40;;;;;;3576643;40;20040;-61
2021/06/05 13:55:41;;;;;;;5.75;2.30;;;36.90;43.50;;;;;;3574839;40;20048;-60
2021/06/05 13:58:08;;;;;;;5.93;2.45;;;37.20;42.60;;;;;;3580069;40;20037;-60
2021/06/05 14:00:36;;;;;;;4.72;2.70;;;;;;;;;;3577892;40;20041;-60
2021/06/05 14:03:01;;;;;;;5.07;2.38;;;37.20;42.60;;;;;;3575851;40;20037;-60
2021/06/05 14:05:27;;;;;;;3.50;2.10;;;37.70;42.30;;;;;;3577851;40;20382;-60
2021/06/05 14:07:54;;;;;;;6.88;2.35;;;37.30;43.30;;;;;;3576420;40;20025;-60
2021/06/05 14:10:21;;;;;;;3.83;2.42;;;37.20;42.60;;;;;;3572897;40;20061;-61
2021/06/05 14:12:47;;;;;;;6.70;2.80;;;35.10;43.70;;;;;;3575763;40;20048;-60
2021/06/05 14:15:36;;;;;;;3.65;2.20;;;35.50;44.90;;;;;;3578624;40;20398;-60
2021/06/05 14:18:02;;;;;;;4.82;2.80;;;35.20;44.50;;;;;;3573982;40;20056;-61
2021/06/05 14:20:31;;;;;;;4.25;2.42;;;36.10;45.00;;;;;;3575499;40;20044;-61
2021/06/05 14:22:58;;;;;;;4.28;2.50;;;37.10;43.20;;;;;;3578252;40;20052;-61
2021/06/05 14:25:24;;;;;;;3.35;2.40;;;37.80;42.50;;;;;;3578333;40;20026;-61
2021/06/05 14:27:51;;;;;;;5.07;2.00;;;37.50;43.50;;;;;;3573754;40;20029;-61
2021/06/05 14:30:40;;;;;;;3.47;2.13;;;38.80;41.50;;;;;;3571366;40;20025;-61
2021/06/05 14:33:06;;;;;;;5.65;2.28;;;38.80;40.80;;;;;;3576935;40;20033;-61
2021/06/05 14:35:34;;;;;;;4.40;2.22;;;38.80;41.00;;;;;;3575284;40;20035;-61
2021/06/05 14:38:01;;;;;;;2.83;2.15;;;39.20;40.70;;;;;;3574372;40;20043;-61
2021/06/05 14:40:27;;;;;;;3.80;2.10;;;39.70;41.30;;;;;;3573927;40;20089;-61
2021/06/05 14:42:53;;;;;;;2.90;2.20;;;38.10;40.70;;;;;;3575294;40;20025;-61
2021/06/05 14:45:22;;;;;;;5.15;2.50;;;37.00;43.30;;;;;;3576270;40;20044;-61
2021/06/05 14:47:48;;;;;;;5.90;2.20;;;36.30;42.40;;;;;;3578231;40;20419;-61
2021/06/05 14:50:18;;;;;;;5.82;2.00;;;35.70;42.20;;;;;;3579159;40;20036;-61
2021/06/05 14:52:44;;;;;;;4.03;2.15;;;35.80;43.70;;;;;;3572627;40;20037;-61
2021/06/05 14:55:16;;;;;;;3.75;2.53;;;37.50;42.00;;;;;;3573604;40;20751;-61
2021/06/05 14:57:42;;;;;;;7.80;3.67;;;37.00;41.00;;;;;;3573763;40;20045;-60
2021/06/05 15:00:11;;;;;;;3.47;2.30;;;36.30;42.10;;;;;;3574085;40;20045;-61
2021/06/05 15:02:38;;;;;;;4.30;2.53;;;35.70;42.80;;;;;;3576841;40;20036;-61
2021/06/05 15:05:05;;;;;;;5.00;2.20;;;35.80;42.00;;;;;;3577370;40;20647;-61
2021/06/05 15:07:32;;;;;;;3.08;2.10;;;36.70;42.90;;;;;;3577464;40;20041;-61
2021/06/05 15:09:57;;;;;;;4.38;2.00;;;36.60;41.60;;;;;;3575128;40;20041;-61
2021/06/05 15:12:23;;;;;;;3.15;2.40;;;36.40;41.80;;;;;;3572866;40;20039;-61
2021/06/05 15:14:49;;;;;;;3.00;2.35;;;37.40;41.90;;;;;;3574317;40;20535;-61
2021/06/05 15:17:15;;;;;;;3.95;2.28;;;37.70;40.70;;;;;;3576212;40;20130;-61
2021/06/05 15:19:41;;;;;;;2.95;1.90;;;37.70;40.80;;;;;;3576914;40;20513;-61
2021/06/05 15:22:08;;;;;;;3.53;2.30;;;37.90;41.90;;;;;;3578175;40;20037;-61
2021/06/05 15:24:34;;;;;;;8.88;2.08;;;37.80;40.10;;;;;;3568553;40;20039;-61
2021/06/05 15:27:00;;;;;;;7.72;2.22;;;37.90;40.20;;;;;;3579088;40;20029;-61
2021/06/05 15:29:26;;;;;;;2.33;1.80;;;37.50;40.10;;;;;;3572648;40;20044;-61
2021/06/05 15:31:52;;;;;;;2.75;1.60;;;38.20;41.50;;;;;;3574373;40;20142;-61
2021/06/05 15:34:18;;;;;;;2.22;2.00;;;38.80;39.20;;;;;;3576208;40;20156;-62
2021/06/05 15:36:45;;;;;;;5.35;2.00;;;38.00;39.90;;;;;;3576139;40;20045;-61
2021/06/05 15:39:11;;;;;;;2.65;1.85;;;36.80;40.80;;;;;;3578377;40;20029;-61
2021/06/05 15:41:37;;;;;;;7.13;1.90;;;36.00;42.00;;;;;;3577440;40;20133;-61
2021/06/05 15:44:03;;;;;;;7.32;1.90;;;36.10;41.20;;;;;;3571279;40;20403;-61
2021/06/05 15:46:29;;;;;;;4.10;2.00;;;36.80;41.40;;;;;;3573428;40;20032;-62
2021/06/05 15:48:55;;;;;;;2.17;1.70;;;37.10;40.10;;;;;;3578750;40;20029;-61
2021/06/05 15:51:31;;;;;;;3.78;2.20;;;37.20;40.10;;;;;;3571951;40;20033;-61
2021/06/05 15:53:58;;;;;;;2.55;1.90;;;36.20;40.50;;;;;;3574750;40;20041;-61
2021/06/05 15:56:26;;;;;;;6.22;2.00;;;36.10;41.20;;;;;;3575973;40;20511;-61
2021/06/05 15:58:52;;;;;;;5.88;1.77;;;36.20;41.60;;;;;;3574625;40;20060;-61
2021/06/05 16:01:20;;;;;;;3.50;1.70;;;36.80;40.70;;;;;;3575589;40;20044;-61
2021/06/05 16:03:46;;;;;;;2.35;1.77;;;35.90;40.70;;;;;;3577206;40;20052;-61
2021/06/05 16:06:12;;;;;;;2.40;1.90;;;35.20;41.30;;;;;;3580097;40;20056;-61
2021/06/05 16:08:38;;;;;;;4.13;2.35;;;34.40;42.20;;;;;;3575579;40;20036;-60
2021/06/05 16:11:04;;;;;;;7.35;2.30;;;33.40;43.40;;;;;;3572679;40;20733;-61
2021/06/05 16:13:31;;;;;;;9.77;7.35;;;32.80;44.10;;;;;;3575143;40;20056;-61
2021/06/05 16:16:04;;;;;;;7.22;3.88;;;32.50;45.40;;;;;;3576110;40;20039;-61
2021/06/05 16:18:32;;;;;;;4.10;2.30;;;32.20;45.30;;;;;;3577582;40;20683;-61
2021/06/05 16:21:00;;;;;;;5.32;3.83;;;31.90;45.90;;;;;;3573157;40;20033;-60
2021/06/05 16:23:28;;;;;;;10.85;4.07;;;31.60;47.70;;;;;;3571709;40;20507;-60
2021/06/05 16:25:54;;;;;;;7.18;2.35;;;31.10;47.30;;;;;;3577810;40;20036;-64
2021/06/05 16:28:21;;;;;;;4.72;2.53;;;30.40;48.20;;;;;;3578225;40;20044;-64
2021/06/05 16:30:47;;;;;;;4.70;2.50;;;29.90;48.80;;;;;;3575080;40;20310;-65
2021/06/05 16:33:14;;;;;;;4.75;2.50;;;29.20;51.40;;;;;;3574074;40;20283;-64
2021/06/05 16:35:47;;;;;;;3.97;2.72;;;29.50;51.60;;;;;;3574713;40;20691;-64
2021/06/05 16:38:14;;;;;;;6.60;4.97;;;29.90;50.80;;;;;;3578424;40;20040;-64
2021/06/05 16:40:41;;;;;;;4.63;2.65;;;29.20;49.70;;;;;;3573412;40;20297;-64
2021/06/05 16:43:10;;;;;;;4.78;3.03;;;29.20;49.70;;;;;;3576689;40;20152;-64
2021/06/05 16:45:37;;;;;;;4.03;2.35;;;28.90;52.20;;;;;;3574103;40;20332;-64
2021/06/05 16:48:04;;;;;;;4.38;2.53;;;;;;;;;;3578133;40;20395;-64
2021/06/05 16:50:32;;;;;;;3.88;2.85;;;;;;;;;;3575485;40;20711;-63
2021/06/05 16:52:59;;;;;;;6.07;2.72;;;;;;;;;;3577068;40;20052;-63
2021/06/05 16:55:29;;;;;;;3.20;2.30;;;;;;;;;;3578174;40;20032;-64
2021/06/05 16:57:56;;;;;;;6.78;2.88;;;;;;;;;;3574261;40;20407;-64
2021/06/05 17:00:24;;;;;;;11.90;4.38;;;;;;;;;;3577287;40;20114;-63
2021/06/05 17:02:51;;;;;;;8.40;3.05;;;;;;;;;;3578442;40;20039;-62
2021/06/05 17:05:17;;;;;;;10.35;3.28;;;;;;;;;;3577892;40;20044;-63
2021/06/05 17:07:44;;;;;;;5.35;2.90;;;;;;;;;;3577776;40;20037;-64
2021/06/05 17:10:13;;;;;;;6.38;2.60;;;28.00;52.60;;;;;;3576366;40;20037;-63
2021/06/05 17:12:39;;;;;;;4.03;2.75;;;;;;;;;;3578215;40;20051;-63
2021/06/05 17:15:08;;;;;;;4.95;2.58;;;;;;;;;;3576153;40;20132;-63
2021/06/05 17:17:34;;;;;;;6.28;3.78;;;;;;;;;;3578287;40;20148;-64
2021/06/05 17:20:00;;;;;;;10.27;6.03;;;;;;;;;;3570759;40;20053;-64
2021/06/05 17:22:27;;;;;;;4.78;3.30;;;;;;;;;;3576481;40;20041;-64
2021/06/05 17:24:53;;;;;;;21.15;4.95;;;;;;;;;;3576379;40;20040;-64
2021/06/05 17:27:19;;;;;;;8.48;4.70;;;;;;;;;;3576867;40;20122;-64
2021/06/05 17:29:47;;;;;;;11.23;4.13;;;;;;;;;;3576254;40;20057;-64
2021/06/05 17:32:14;;;;;;;32.08;6.90;;;;;;;;;;3574825;40;20126;-64
2021/06/05 17:34:40;;;;;;;23.10;7.10;;;;;;;;;;3574825;40;20392;-64
2021/06/05 17:37:07;;;;;;;22.80;7.15;;;;;;;;;;3579678;40;20287;-64
2021/06/05 17:39:34;;;;;;;29.80;8.27;;;;;;;;;;3574280;40;20033;-64
2021/06/05 17:42:00;;;;;;;22.05;7.50;;;;;;;;;;3577448;40;20032;-64
2021/06/05 17:44:26;;;;;;;54.33;8.93;;;;;;;;;;3576245;40;20039;-64
2021/06/05 17:46:52;;;;;;;31.65;6.55;;;;;;;;;;3577081;40;20033;-64
2021/06/05 17:49:18;;;;;;;24.05;6.80;;;;;;;;;;3578237;40;20134;-64
2021/06/05 17:51:45;;;;;;;26.02;8.05;;;;;;;;;;3576648;40;20152;-64
2021/06/05 17:54:19;;;;;;;14.35;5.50;;;;;;;;;;3577938;40;20345;-59
2021/06/05 17:56:45;;;;;;;55.00;8.95;;;;;;;;;;3572037;40;20504;-59
2021/06/05 17:59:11;;;;;;;4.70;2.95;;;;;;;;;;3571277;40;20513;-59
2021/06/05 18:01:37;;;;;;;9.45;4.90;;;;;;;;;;3575271;40;20165;-59
2021/06/05 18:04:05;;;;;;;10.75;6.10;;;;;;;;;;3576410;40;20036;-59
2021/06/05 18:06:31;;;;;;;7.07;4.30;;;;;;;;;;3577111;40;20049;-60
2021/06/05 18:08:58;;;;;;;7.45;3.85;;;;;;;;;;3577705;40;20091;-59
2021/06/05 18:11:35;;;;;;;13.50;4.57;;;;;;;;;;3578184;40;20041;-66
2021/06/05 18:14:02;;;;;;;4.90;3.30;;;;;;;;;;3575051;40;20621;-66
2021/06/05 18:16:30;;;;;;;6.85;3.90;;;;;;;;;;3579215;40;20032;-66
2021/06/05 18:18:56;;;;;;;5.47;3.17;;;;;;;;;;3578247;40;20048;-65
2021/06/05 18:21:25;;;;;;;4.55;3.28;;;;;;;;;;3576858;40;20044;-68
2021/06/05 18:23:51;;;;;;;4.97;3.13;;;;;;;;;;3576752;40;20048;-65
2021/06/05 18:26:17;;;;;;;4.90;3.13;;;;;;;;;;3576933;40;20059;-66
2021/06/05 18:28:43;;;;;;;5.75;2.97;;;;;;;;;;3573547;40;20067;-66
2021/06/05 18:31:10;;;;;;;6.00;3.20;;;;;;;;;;3571008;40;20764;-66
2021/06/05 18:33:38;;;;;;;4.32;3.00;;;;;;;;;;3574464;40;20024;-66
2021/06/05 18:36:07;;;;;;;7.38;3.63;;;24.60;62.40;;;;;;3575997;40;20029;-66
2021/06/05 18:38:34;;;;;;;4.80;2.80;;;;;;;;;;3578582;40;20029;-66
2021/06/05 18:41:03;;;;;;;6.97;3.95;;;24.60;62.20;;;;;;3577206;40;20826;-66
2021/06/05 18:43:30;;;;;;;6.38;3.88;;;;;;;;;;3575091;40;20056;-65
2021/06/05 18:45:57;;;;;;;7.03;4.15;;;24.40;62.70;;;;;;3572682;40;20265;-66
2021/06/05 18:48:25;;;;;;;8.45;4.55;;;;;;;;;;3577833;40;20028;-66
2021/06/05 18:50:52;;;;;;;19.38;6.07;;;;;;;;;;3575813;40;20526;-66
2021/06/05 18:53:22;;;;;;;77.25;11.18;;;24.80;66.50;;;;;;3577909;40;20052;-66
2021/06/05 18:55:50;;;;;;;6.20;3.90;;;;;;;;;;3576002;40;20033;-66
2021/06/05 18:58:21;;;;;;;15.73;5.45;;;;;;;;;;3574568;40;20032;-66
2021/06/05 19:00:47;;;;;;;8.93;3.83;;;;;;;;;;3575431;40;20326;-66
2021/06/05 19:03:13;;;;;;;8.02;4.28;;;;;;;;;;3576056;40;20033;-67
2021/06/05 19:05:40;;;;;;;11.73;4.80;;;24.10;63.80;;;;;;3578088;40;20087;-67
2021/06/05 19:08:13;;;;;;;27.25;6.35;;;;;;;;;;3573022;40;20137;-65
2021/06/05 19:10:39;;;;;;;7.55;3.65;;;24.00;63.20;;;;;;3575719;40;20056;-67
2021/06/05 19:13:06;;;;;;;7.93;3.67;;;;;;;;;;3574142;40;20056;-66
2021/06/05 19:15:36;;;;;;;8.40;3.33;;;;;;;;;;3575815;40;20033;-66
2021/06/05 19:18:03;;;;;;;12.32;4.60;;;;;;;;;;3574339;40;20026;-67
2021/06/05 19:20:29;;;;;;;6.28;3.80;;;;;;;;;;3577631;40;20044;-66
2021/06/05 19:22:55;;;;;;;9.70;4.07;;;;;;;;;;3577462;40;20032;-66
2021/06/05 19:25:27;;;;;;;8.20;4.22;;;23.90;74.50;;;;;;3576706;40;20167;-66
2021/06/05 19:27:54;;;;;;;14.52;6.90;;;;;;;;;;3572667;40;20040;-66
2021/06/05 19:30:26;;;;;;;6.45;4.65;;;;;;;;;;3576592;40;20690;-66
2021/06/05 19:32:52;;;;;;;8.02;4.65;;;;;;;;;;3577362;40;20040;-65
2021/06/05 19:35:19;;;;;;;5.55;4.03;;;;;;;;;;3578454;40;20757;-65
2021/06/05 19:37:45;;;;;;;6.38;3.95;;;;;;;;;;3577444;40;20052;-66
2021/06/05 19:40:13;;;;;;;5.95;4.10;;;;;;;;;;3578374;40;20044;-65
2021/06/05 19:42:39;;;;;;;7.32;4.63;;;;;;;;;;3580143;40;20037;-65
2021/06/05 19:45:06;;;;;;;10.00;4.57;;;23.60;66.70;;;;;;3578088;40;20099;-65
2021/06/05 19:47:32;;;;;;;14.30;8.50;;;;;;;;;;3571130;40;20066;-65
2021/06/05 19:49:59;;;;;;;31.83;16.55;;;;;;;;;;3576779;40;20036;-65
2021/06/05 19:52:28;;;;;;;13.10;7.13;;;23.60;68.60;;;;;;3577710;40;20025;-65
2021/06/05 19:54:56;;;;;;;12.52;4.88;;;23.30;67.30;;;;;;3576303;40;20037;-66
2021/06/05 19:57:23;;;;;;;8.48;4.20;;;23.40;66.80;;;;;;3584140;40;20029;-59
2021/06/05 19:59:50;;;;;;;7.53;4.10;;;;;;;;;;3576036;40;20053;-59
2021/06/05 20:02:16;;;;;;;11.25;3.97;;;;;;;;;;3574303;40;20615;-59
2021/06/05 20:04:42;;;;;;;9.00;4.32;;;;;;;;;;3569979;40;20041;-59
2021/06/05 20:07:09;;;;;;;7.47;4.60;;;;;;;;;;3577078;40;20146;-59
2021/06/05 20:09:35;;;;;;;6.72;4.47;;;;;;;;;;3578324;40;20036;-59
2021/06/05 20:12:02;;;;;;;6.30;4.40;;;23.20;66.70;;;;;;3576154;40;20118;-59
2021/06/05 20:14:28;;;;;;;5.82;4.10;;;;;;;;;;3573456;40;20696;-59
2021/06/05 20:16:55;;;;;;;7.72;4.28;;;;;;;;;;3574086;40;20057;-59
2021/06/05 20:19:25;;;;;;;6.63;4.65;;;;;;;;;;3573524;40;20555;-59
2021/06/05 20:21:53;;;;;;;7.55;5.13;;;;;;;;;;3577012;40;20052;-59
2021/06/05 20:24:20;;;;;;;8.32;6.57;;;;;;;;;;3576317;40;20047;-60
2021/06/05 20:26:46;;;;;;;14.23;7.40;;;;;;;;;;3570053;40;20176;-64
2021/06/05 20:29:13;;;;;;;20.08;6.13;;;22.90;68.30;;;;;;3573029;40;20029;-65
2021/06/05 20:31:40;;;;;;;27.42;7.28;;;;;;;;;;3574243;40;20037;-65
2021/06/05 20:34:07;;;;;;;23.38;7.32;;;;;;;;;;3574584;40;20029;-66
2021/06/05 20:36:33;;;;;;;22.70;7.55;;;;;;;;;;3573149;40;20084;-65
2021/06/05 20:38:59;;;;;;;13.02;7.28;;;;;;;;;;3574537;40;20044;-66
2021/06/05 20:41:25;;;;;;;9.02;5.28;;;;;;;;;;3569492;40;20037;-65
2021/06/05 20:43:52;;;;;;;79.28;13.88;;;;;;;;;;3569775;40;20642;-65
2021/06/05 20:46:19;;;;;;;96.88;13.77;;;;;;;;;;3571410;40;20033;-65
2021/06/05 20:48:48;;;;;;;86.55;14.20;;;;;;;;;;3574795;40;20036;-65
2021/06/05 20:51:22;;;;;;;98.82;15.85;;;;;;;;;;3573820;40;20049;-65
2021/06/05 20:53:48;;;;;;;85.00;15.10;;;;;;;;;;3575205;40;20345;-65
2021/06/05 20:56:15;;;;;;;120.10;17.90;;;;;;;;;;3572975;40;20053;-65
2021/06/05 20:58:44;;;;;;;74.38;12.95;;;;;;;;;;3570414;40;20048;-59
2021/06/05 21:01:13;;;;;;;93.60;14.55;;;;;;;;;;3569207;40;20041;-59
2021/06/05 21:03:41;;;;;;;86.53;15.25;;;;;;;;;;3570849;40;20044;-59
2021/06/05 21:06:09;;;;;;;89.18;16.33;;;;;;;;;;3571803;40;20040;-59
2021/06/05 21:08:35;;;;;;;152.18;23.67;;;;;;;;;;3573440;40;20711;-59
2021/06/05 21:11:01;;;;;;;95.53;20.83;;;;;;;;;;3571546;40;20029;-59
2021/06/05 21:13:37;;;;;;;77.03;14.95;;;;;;;;;;3571821;40;20505;-59
2021/06/05 21:16:05;;;;;;;94.30;24.17;;;;;;;;;;3570739;40;20049;-59
2021/06/05 21:18:31;;;;;;;106.00;18.50;;;;;;;;;;3571146;40;20041;-67
2021/06/05 21:20:57;;;;;;;117.93;22.00;;;;;;;;;;3576997;40;20038;-64
2021/06/05 21:23:24;;;;;;;96.43;17.27;;;;;;;;;;3576787;40;20029;-65
2021/06/05 21:25:51;;;;;;;83.93;16.52;;;;;;;;;;3574125;40;20037;-66
2021/06/05 21:28:18;;;;;;;97.75;18.55;;;;;;;;;;3575225;40;20029;-64
2021/06/05 21:30:44;;;;;;;48.58;14.13;;;;;;;;;;3576522;40;20037;-58
2021/06/05 21:33:12;;;;;;;139.52;21.77;;;;;;;;;;3577308;40;20032;-58
2021/06/05 21:35:38;;;;;;;72.95;16.02;;;;;;;;;;3579785;40;20029;-58
2021/06/05 21:38:05;;;;;;;54.90;14.10;;;;;;;;;;3580084;40;20125;-58
2021/06/05 21:40:32;;;;;;;30.95;11.93;;;;;;;;;;3577760;40;20032;-58
2021/06/05 21:42:59;;;;;;;77.85;16.33;;;;;;;;;;3577413;40;20024;-58
2021/06/05 21:45:27;;;;;;;115.47;19.42;;;;;;;;;;3575371;40;20358;-59
2021/06/05 21:47:53;;;;;;;124.15;21.05;;;;;;;;;;3574740;40;20048;-58
2021/06/05 21:50:22;;;;;;;107.68;22.63;;;;;;;;;;3572943;40;20028;-60
2021/06/05 21:52:49;;;;;;;124.05;25.02;;;;;;;;;;3571113;40;20092;-59
2021/06/05 21:55:15;;;;;;;108.68;24.08;;;;;;;;;;3569990;40;20075;-59
2021/06/05 21:57:41;;;;;;;86.13;17.05;;;;;;;;;;3570548;40;20041;-58
2021/06/05 22:00:45;;;;;;;51.15;14.57;;;;;;;;;;3572467;40;20805;-58
2021/06/05 22:03:14;;;;;;;87.00;17.90;;;;;;;;;;3573305;40;20040;-58
2021/06/05 22:05:42;;;;;;;103.60;18.63;;;;;;;;;;3575407;40;20170;-58
2021/06/05 22:08:10;;;;;;;24.15;12.07;;;;;;;;;;3575942;40;20730;-63
2021/06/05 22:10:36;;;;;;;28.42;13.25;;;;;;;;;;3572861;40;20779;-65
2021/06/05 22:13:02;;;;;;;58.42;15.65;;;;;;;;;;3578340;40;20161;-65
2021/06/05 22:15:28;;;;;;;100.63;18.05;;;;;;;;;;3578998;40;20060;-67
2021/06/05 22:17:54;;;;;;;94.00;17.33;;;;;;;;;;3578108;40;20040;-65
2021/06/05 22:20:21;;;;;;;91.65;17.58;;;;;;;;;;3577895;40;20067;-65
2021/06/05 22:22:48;;;;;;;125.57;20.10;;;;;;;;;;3575138;40;20043;-65
2021/06/05 22:25:16;;;;;;;122.45;20.65;;;;;;;;;;3575166;40;20053;-65
2021/06/05 22:27:44;;;;;;;96.22;17.15;;;;;;;;;;3577023;40;20126;-65